createdAt,value
2023-03-15T00:01:40.130Z,97675.25
2023-03-15T00:04:06.535Z,97677.75
2023-03-15T00:06:34.067Z,97660.84
2023-03-15T00:09:02.085Z,97654.06
2023-03-15T00:11:30.995Z,97654.16
2023-03-15T00:13:58.296Z,97659.25
2023-03-15T00:16:27.231Z,97655.88
2023-03-15T00:18:54.351Z,97659.25
2023-03-15T00:21:21.263Z,97662.66
2023-03-15T00:23:48.046Z,97681.25
2023-03-15T00:26:14.945Z,97683.78
2023-03-15T00:28:41.847Z,97688.00
2023-03-15T00:31:14.736Z,97690.56
2023-03-15T00:33:41.613Z,97688.00
2023-03-15T00:36:09.526Z,97685.47
2023-03-15T00:38:38.419Z,97701.59
2023-03-15T00:41:13.839Z,97710.91
2023-03-15T00:43:40.505Z,97710.91
2023-03-15T00:46:07.574Z,97709.22
2023-03-15T00:48:37.689Z,97714.28
2023-03-15T00:51:24.227Z,97725.31
2023-03-15T00:53:53.123Z,97739.69
2023-03-15T00:56:23.418Z,97742.25
2023-03-15T00:58:52.773Z,97731.19
2023-03-15T01:01:22.361Z,97743.03
2023-03-15T01:03:48.974Z,97737.94
2023-03-15T01:06:20.817Z,97744.69
2023-03-15T01:08:48.002Z,97749.84
2023-03-15T01:11:21.332Z,97757.44
2023-03-15T01:13:47.874Z,97758.28
2023-03-15T01:16:14.816Z,97759.06
2023-03-15T01:18:41.585Z,97769.25
2023-03-15T01:21:13.809Z,97760.81
2023-03-15T01:23:40.558Z,97765.91
2023-03-15T01:26:12.963Z,97769.31
2023-03-15T01:28:39.782Z,97769.34
2023-03-15T01:31:06.669Z,97771.06
2023-03-15T01:33:33.293Z,97773.63
2023-03-15T01:36:07.411Z,97785.47
2023-03-15T01:38:34.616Z,97781.25
2023-03-15T01:41:01.309Z,97788.03
2023-03-15T01:43:29.679Z,97794.81
2023-03-15T01:46:02.236Z,97798.19
2023-03-15T01:48:44.768Z,97795.66
2023-03-15T01:51:21.955Z,97796.53
2023-03-15T01:53:56.102Z,97799.09
2023-03-15T01:56:23.847Z,97800.81
2023-03-15T01:58:52.736Z,97802.50
2023-03-15T02:01:20.474Z,97806.72
2023-03-15T02:03:52.343Z,97810.94
2023-03-15T02:06:20.224Z,97817.75
2023-03-15T02:08:51.831Z,97815.22
2023-03-15T02:11:21.235Z,97825.34
2023-03-15T02:13:49.442Z,97827.06
2023-03-15T02:16:16.938Z,97830.47
2023-03-15T02:18:43.377Z,97832.97
2023-03-15T02:21:28.196Z,97830.44
2023-03-15T02:24:15.172Z,97836.34
2023-03-15T02:26:51.269Z,97831.25
2023-03-15T02:29:17.723Z,97840.59
2023-03-15T02:31:44.700Z,97843.16
2023-03-15T02:34:11.239Z,97846.53
2023-03-15T02:36:37.685Z,97844.00
2023-03-15T02:39:14.949Z,97850.78
2023-03-15T02:41:44.688Z,97856.72
2023-03-15T02:44:17.817Z,97860.94
2023-03-15T02:46:48.363Z,97866.03
2023-03-15T02:49:17.071Z,97876.19
2023-03-15T02:51:43.645Z,97881.28
2023-03-15T02:54:10.079Z,97878.75
2023-03-15T02:56:36.583Z,97880.44
2023-03-15T02:59:03.051Z,97889.75
2023-03-15T03:01:29.510Z,97902.47
2023-03-15T03:03:56.047Z,97906.69
2023-03-15T03:06:22.769Z,97916.03
2023-03-15T03:08:49.493Z,97924.47
2023-03-15T03:11:16.058Z,97924.47
2023-03-15T03:13:43.157Z,97929.53
2023-03-15T03:16:09.952Z,97934.63
2023-03-15T03:18:36.461Z,97939.69
2023-03-15T03:21:06.010Z,97946.44
2023-03-15T03:23:34.010Z,97949.84
2023-03-15T03:26:01.798Z,97960.00
2023-03-15T03:28:30.486Z,97962.53
2023-03-15T03:30:58.442Z,97969.25
2023-03-15T03:33:25.232Z,97981.13
2023-03-15T03:35:51.722Z,97974.34
2023-03-15T03:38:18.161Z,97988.69
2023-03-15T03:40:45.889Z,97992.91
2023-03-15T03:43:12.333Z,98005.59
2023-03-15T03:45:38.780Z,98001.38
2023-03-15T03:48:05.286Z,98007.25
2023-03-15T03:50:31.847Z,98013.94
2023-03-15T03:52:58.284Z,98017.34
2023-03-15T03:55:25.443Z,98016.47
2023-03-15T03:57:53.007Z,98015.63
2023-03-15T04:00:20.171Z,98025.75
2023-03-15T04:02:46.623Z,98022.34
2023-03-15T04:05:13.599Z,98029.94
2023-03-15T04:07:40.061Z,98029.91
2023-03-15T04:10:06.794Z,98031.63
2023-03-15T04:12:33.257Z,98041.75
2023-03-15T04:14:59.680Z,98040.03
2023-03-15T04:17:26.131Z,98040.84
2023-03-15T04:19:52.928Z,98043.38
2023-03-15T04:22:19.411Z,98046.72
2023-03-15T04:24:45.846Z,98052.59
2023-03-15T04:27:15.056Z,98059.34
2023-03-15T04:29:43.585Z,98057.63
2023-03-15T04:32:10.688Z,98062.69
2023-03-15T04:34:39.964Z,98077.09
2023-03-15T04:37:06.601Z,98082.94
2023-03-15T04:39:33.087Z,98088.03
2023-03-15T04:41:59.714Z,98090.56
2023-03-15T04:44:27.483Z,98093.91
2023-03-15T04:46:55.236Z,98096.41
2023-03-15T04:49:22.088Z,98100.63
2023-03-15T04:51:48.536Z,98096.44
2023-03-15T04:54:14.948Z,98109.97
2023-03-15T04:56:42.186Z,98097.19
2023-03-15T04:59:08.814Z,98103.13
2023-03-15T05:01:35.350Z,98114.13
2023-03-15T05:04:01.825Z,98116.66
2023-03-15T05:06:29.267Z,98118.34
2023-03-15T05:08:55.807Z,98112.41
2023-03-15T05:11:22.380Z,98118.25
2023-03-15T05:13:48.957Z,98130.94
2023-03-15T05:16:15.502Z,98130.06
2023-03-15T05:18:42.025Z,98124.13
2023-03-15T05:21:08.444Z,98138.41
2023-03-15T05:23:34.913Z,98147.75
2023-03-15T05:26:01.361Z,98148.59
2023-03-15T05:28:28.109Z,98152.75
2023-03-15T05:30:54.701Z,98151.06
2023-03-15T05:33:21.712Z,98163.69
2023-03-15T05:35:48.806Z,98157.72
2023-03-15T05:38:15.282Z,98161.94
2023-03-15T05:40:43.859Z,98160.28
2023-03-15T05:43:10.462Z,98167.91
2023-03-15T05:45:37.793Z,98179.75
2023-03-15T05:48:05.185Z,98176.44
2023-03-15T05:50:32.447Z,98186.63
2023-03-15T05:52:59.872Z,98186.63
2023-03-15T05:55:26.373Z,98192.59
2023-03-15T05:57:52.852Z,98196.81
2023-03-15T06:00:20.039Z,98198.53
2023-03-15T06:02:46.948Z,98203.75
2023-03-15T06:05:13.411Z,98209.72
2023-03-15T06:07:39.835Z,98205.56
2023-03-15T06:10:09.376Z,98212.34
2023-03-15T06:12:35.801Z,98198.91
2023-03-15T06:15:02.271Z,98215.09
2023-03-15T06:17:28.795Z,98211.03
2023-03-15T06:19:55.234Z,98212.03
2023-03-15T06:22:21.692Z,98208.88
2023-03-15T06:24:50.527Z,98209.97
2023-03-15T06:27:22.151Z,98218.63
2023-03-15T06:29:50.511Z,98219.53
2023-03-15T06:32:19.709Z,98211.00
2023-03-15T06:34:46.194Z,98222.00
2023-03-15T06:37:35.885Z,98231.19
2023-03-15T06:40:10.864Z,98233.53
2023-03-15T06:42:39.084Z,98233.25
2023-03-15T06:45:06.694Z,98236.25
2023-03-15T06:47:33.161Z,98237.63
2023-03-15T06:49:59.606Z,98231.56
2023-03-15T06:52:26.368Z,98223.25
2023-03-15T06:54:52.775Z,98221.50
2023-03-15T06:57:19.295Z,98226.53
2023-03-15T06:59:45.742Z,98224.25
2023-03-15T07:02:15.062Z,98223.72
2023-03-15T07:04:41.589Z,98232.47
2023-03-15T07:07:07.975Z,98225.69
2023-03-15T07:09:34.412Z,98234.50
2023-03-15T07:12:00.854Z,98231.50
2023-03-15T07:14:27.488Z,98233.88
2023-03-15T07:16:54.118Z,98226.81
2023-03-15T07:19:20.543Z,98239.53
2023-03-15T07:21:47.012Z,98242.47
2023-03-15T07:24:13.401Z,98242.44
2023-03-15T07:26:39.806Z,98242.97
2023-03-15T07:29:06.197Z,98258.81
2023-03-15T07:31:32.629Z,98258.13
2023-03-15T07:33:59.035Z,98259.44
2023-03-15T07:36:25.545Z,98251.66
2023-03-15T07:38:52.069Z,98248.72
2023-03-15T07:41:18.706Z,98253.84
2023-03-15T07:43:46.207Z,98260.56
2023-03-15T07:46:12.704Z,98256.22
2023-03-15T07:48:39.207Z,98252.38
2023-03-15T07:51:05.838Z,98253.91
2023-03-15T07:53:32.309Z,98255.44
2023-03-15T07:55:58.867Z,98256.22
2023-03-15T07:58:25.313Z,98262.31
2023-03-15T08:00:55.089Z,98255.84
2023-03-15T08:03:21.634Z,98255.56
2023-03-15T08:05:48.073Z,98259.31
2023-03-15T08:08:14.477Z,98250.41
2023-03-15T08:10:41.839Z,98255.94
2023-03-15T08:13:08.243Z,98261.13
2023-03-15T08:15:34.668Z,98260.69
2023-03-15T08:18:01.171Z,98269.31
2023-03-15T08:20:29.665Z,98269.19
2023-03-15T08:22:56.461Z,98269.88
2023-03-15T08:25:24.117Z,98282.19
2023-03-15T08:27:51.338Z,98274.03
2023-03-15T08:30:19.554Z,98272.88
2023-03-15T08:32:47.700Z,98270.25
2023-03-15T08:35:16.222Z,98265.34
2023-03-15T08:37:47.800Z,98273.09
2023-03-15T08:40:25.100Z,98275.72
2023-03-15T08:42:55.790Z,98275.94
2023-03-15T08:45:24.651Z,98279.94
2023-03-15T08:48:00.830Z,98272.50
2023-03-15T08:50:28.501Z,98274.91
2023-03-15T08:52:55.381Z,98276.22
2023-03-15T08:55:21.933Z,98271.28
2023-03-15T08:57:48.404Z,98273.69
2023-03-15T09:00:22.829Z,98274.69
2023-03-15T09:02:51.894Z,98278.16
2023-03-15T09:05:19.473Z,98283.59
2023-03-15T09:07:46.246Z,98283.41
2023-03-15T09:10:15.172Z,98287.88
2023-03-15T09:12:45.452Z,98290.59
2023-03-15T09:15:12.110Z,98295.13
2023-03-15T09:17:41.867Z,98297.16
2023-03-15T09:20:18.881Z,98303.09
2023-03-15T09:22:52.870Z,98306.44
2023-03-15T09:25:23.584Z,98308.19
2023-03-15T09:27:50.725Z,98315.00
2023-03-15T09:30:17.430Z,98310.69
2023-03-15T09:32:45.868Z,98305.63
2023-03-15T09:35:18.064Z,98322.66
2023-03-15T09:37:44.962Z,98315.97
2023-03-15T09:40:26.298Z,98321.09
2023-03-15T09:42:58.651Z,98322.06
2023-03-15T09:45:43.862Z,98333.09
2023-03-15T09:48:20.152Z,98339.03
2023-03-15T09:50:51.493Z,98351.81
2023-03-15T09:53:24.669Z,98348.56
2023-03-15T09:55:51.841Z,98356.22
2023-03-15T09:58:32.431Z,98360.50
2023-03-15T10:01:13.281Z,98352.84
2023-03-15T10:03:50.456Z,98363.03
2023-03-15T10:06:30.223Z,98363.84
2023-03-15T10:08:59.389Z,98371.41
2023-03-15T10:11:45.980Z,98367.13
2023-03-15T10:14:27.988Z,98367.13
2023-03-15T10:16:54.402Z,98357.81
2023-03-15T10:19:45.821Z,98357.78
2023-03-15T10:22:29.624Z,98359.38
2023-03-15T10:24:58.827Z,98357.72
2023-03-15T10:27:41.329Z,98364.56
2023-03-15T10:30:36.167Z,98368.00
2023-03-15T10:33:34.887Z,98369.66
2023-03-15T10:36:11.855Z,98373.03
2023-03-15T10:38:38.859Z,98375.56
2023-03-15T10:41:07.839Z,98378.09
2023-03-15T10:43:37.305Z,98372.22
2023-03-15T10:46:24.370Z,98375.56
2023-03-15T10:48:59.816Z,98379.81
2023-03-15T10:51:31.371Z,98373.03
2023-03-15T10:54:22.821Z,98373.91
2023-03-15T10:57:13.036Z,98370.53
2023-03-15T11:00:05.649Z,98368.84
2023-03-15T11:02:32.893Z,98381.53
2023-03-15T11:05:04.396Z,98379.03
2023-03-15T11:07:35.539Z,98374.78
2023-03-15T11:10:05.669Z,98377.38
2023-03-15T11:12:34.752Z,98372.22
2023-03-15T11:15:10.197Z,98373.03
2023-03-15T11:17:42.124Z,98379.03
2023-03-15T11:20:32.240Z,98373.09
2023-03-15T11:23:00.734Z,98375.66
2023-03-15T11:25:34.061Z,98370.56
2023-03-15T11:28:01.385Z,98373.13
2023-03-15T11:30:31.323Z,98373.94
2023-03-15T11:33:07.149Z,98366.31
2023-03-15T11:35:40.984Z,98373.97
2023-03-15T11:38:30.201Z,98373.13
2023-03-15T11:40:58.720Z,98363.00
2023-03-15T11:43:31.185Z,98373.19
2023-03-15T11:46:06.003Z,98368.09
2023-03-15T11:48:44.072Z,98372.31
2023-03-15T11:51:13.237Z,98370.66
2023-03-15T11:53:46.034Z,98367.25
2023-03-15T11:56:27.414Z,98371.50
2023-03-15T11:59:06.259Z,98364.72
2023-03-15T12:01:34.854Z,98370.66
2023-03-15T12:04:25.986Z,98370.66
2023-03-15T12:06:57.081Z,98368.09
2023-03-15T12:09:32.436Z,98363.84
2023-03-15T12:12:00.876Z,98365.53
2023-03-15T12:14:30.884Z,98372.34
2023-03-15T12:17:29.524Z,98371.53
2023-03-15T12:20:12.644Z,98373.25
2023-03-15T12:22:49.758Z,98363.88
2023-03-15T12:25:22.415Z,98374.94
2023-03-15T12:27:53.572Z,98376.66
2023-03-15T12:30:41.618Z,98378.34
2023-03-15T12:33:19.799Z,98374.06
2023-03-15T12:35:47.530Z,98372.41
2023-03-15T12:38:23.610Z,98366.44
2023-03-15T12:40:57.520Z,98372.38
2023-03-15T12:43:45.773Z,98374.06
2023-03-15T12:46:41.548Z,98375.78
2023-03-15T12:49:13.338Z,98377.50
2023-03-15T12:51:53.534Z,98371.53
2023-03-15T12:54:23.633Z,98380.03
2023-03-15T12:56:58.613Z,98377.50
2023-03-15T12:59:49.848Z,98380.88
2023-03-15T13:02:41.632Z,98379.19
2023-03-15T13:05:09.447Z,98388.53
2023-03-15T13:07:52.702Z,98381.75
2023-03-15T13:10:39.279Z,98382.59
2023-03-15T13:13:30.750Z,98389.38
2023-03-15T13:16:27.869Z,98384.28
2023-03-15T13:19:30.586Z,98382.56
2023-03-15T13:22:09.351Z,98385.94
2023-03-15T13:24:44.683Z,98385.09
2023-03-15T13:27:34.549Z,98385.97
2023-03-15T13:30:38.809Z,98382.59
2023-03-15T13:33:20.049Z,98384.28
2023-03-15T13:35:53.551Z,98382.59
2023-03-15T13:38:30.900Z,98379.19
2023-03-15T13:40:59.493Z,98385.13
2023-03-15T13:43:29.003Z,98383.44
2023-03-15T13:45:58.127Z,98386.84
2023-03-15T13:48:33.372Z,98389.38
2023-03-15T13:51:06.110Z,98386.84
2023-03-15T13:53:48.565Z,98391.94
2023-03-15T13:56:28.356Z,98385.09
2023-03-15T13:58:58.196Z,98385.94
2023-03-15T14:01:26.853Z,98390.16
2023-03-15T14:04:00.058Z,98396.88
2023-03-15T14:06:28.471Z,98394.28
2023-03-15T14:09:01.372Z,98387.41
2023-03-15T14:11:37.557Z,98387.44
2023-03-15T14:14:23.655Z,98383.16
2023-03-15T14:17:04.176Z,98381.53
2023-03-15T14:19:34.218Z,98385.78
2023-03-15T14:22:03.844Z,98388.34
2023-03-15T14:24:38.807Z,98385.78
2023-03-15T14:27:08.601Z,98386.53
2023-03-15T14:29:38.830Z,98394.31
2023-03-15T14:32:09.249Z,98379.84
2023-03-15T14:34:43.856Z,98389.16
2023-03-15T14:37:38.102Z,98389.09
2023-03-15T14:40:29.315Z,98389.06
2023-03-15T14:42:56.054Z,98378.84
2023-03-15T14:45:23.061Z,98386.50
2023-03-15T14:47:57.645Z,98381.38
2023-03-15T14:50:27.717Z,98385.66
2023-03-15T14:52:54.515Z,98383.91
2023-03-15T14:55:29.239Z,98389.00
2023-03-15T14:57:55.730Z,98383.13
2023-03-15T15:00:22.382Z,98384.00
2023-03-15T15:02:53.361Z,98384.88
2023-03-15T15:05:26.671Z,98384.09
2023-03-15T15:08:03.493Z,98385.75
2023-03-15T15:10:30.744Z,98384.09
2023-03-15T15:13:05.949Z,98390.00
2023-03-15T15:15:43.957Z,98379.72
2023-03-15T15:18:18.523Z,98388.16
2023-03-15T15:20:46.099Z,98383.00
2023-03-15T15:23:18.876Z,98389.78
2023-03-15T15:25:46.922Z,98394.81
2023-03-15T15:28:23.940Z,98389.75
2023-03-15T15:30:59.744Z,98390.56
2023-03-15T15:33:27.331Z,98396.53
2023-03-15T15:35:56.560Z,98393.91
2023-03-15T15:38:33.180Z,98394.03
2023-03-15T15:40:59.691Z,98399.16
2023-03-15T15:43:26.060Z,98400.06
2023-03-15T15:45:52.494Z,98394.19
2023-03-15T15:48:18.936Z,98399.31
2023-03-15T15:50:45.475Z,98394.19
2023-03-15T15:53:17.155Z,98396.00
2023-03-15T15:55:44.354Z,98401.09
2023-03-15T15:58:12.611Z,98405.28
2023-03-15T16:00:39.109Z,98411.28
2023-03-15T16:03:17.367Z,98418.97
2023-03-15T16:05:43.826Z,98422.41
2023-03-15T16:08:21.660Z,98437.75
2023-03-15T16:10:48.204Z,98442.03
2023-03-15T16:13:14.918Z,98461.66
2023-03-15T16:15:41.395Z,98452.25
2023-03-15T16:18:11.972Z,98454.75
2023-03-15T16:20:40.674Z,98468.25
2023-03-15T16:23:07.956Z,98464.84
2023-03-15T16:25:36.578Z,98473.19
2023-03-15T16:28:04.404Z,98472.34
2023-03-15T16:30:32.213Z,98474.00
2023-03-15T16:32:58.735Z,98473.16
2023-03-15T16:35:31.579Z,98479.03
2023-03-15T16:37:58.880Z,98477.28
2023-03-15T16:40:35.391Z,98488.34
2023-03-15T16:43:01.904Z,98489.06
2023-03-15T16:45:28.684Z,98499.19
2023-03-15T16:47:56.367Z,98508.44
2023-03-15T16:50:23.117Z,98508.44
2023-03-15T16:52:53.013Z,98516.88
2023-03-15T16:55:24.779Z,98515.97
2023-03-15T16:57:51.598Z,98523.59
2023-03-15T17:00:20.268Z,98520.19
2023-03-15T17:02:52.061Z,98515.13
2023-03-15T17:05:20.769Z,98510.91
2023-03-15T17:07:48.995Z,98522.63
2023-03-15T17:10:27.386Z,98535.31
2023-03-15T17:12:56.110Z,98536.94
2023-03-15T17:15:25.534Z,98546.28
2023-03-15T17:17:53.268Z,98547.03
2023-03-15T17:20:27.400Z,98556.25
2023-03-15T17:22:57.695Z,98558.78
2023-03-15T17:25:24.279Z,98562.13
2023-03-15T17:27:53.407Z,98568.00
2023-03-15T17:30:46.158Z,98573.03
2023-03-15T17:33:12.926Z,98573.06
2023-03-15T17:35:45.763Z,98577.28
2023-03-15T17:38:19.374Z,98581.50
2023-03-15T17:40:45.947Z,98586.41
2023-03-15T17:43:14.616Z,98586.34
2023-03-15T17:45:41.834Z,98579.59
2023-03-15T17:48:08.357Z,98579.44
2023-03-15T17:50:35.761Z,98582.69
2023-03-15T17:53:05.968Z,98578.47
2023-03-15T17:55:36.115Z,98590.22
2023-03-15T17:58:09.149Z,98592.81
2023-03-15T18:00:35.829Z,98596.00
2023-03-15T18:03:02.519Z,98594.19
2023-03-15T18:05:29.823Z,98601.75
2023-03-15T18:07:59.953Z,98608.53
2023-03-15T18:10:31.773Z,98606.75
2023-03-15T18:12:58.179Z,98609.97
2023-03-15T18:15:24.700Z,98608.09
2023-03-15T18:17:51.162Z,98614.03
2023-03-15T18:20:18.459Z,98622.25
2023-03-15T18:22:45.120Z,98628.91
2023-03-15T18:25:24.636Z,98626.28
2023-03-15T18:27:51.401Z,98636.34
2023-03-15T18:30:21.848Z,98635.50
2023-03-15T18:32:49.557Z,98628.59
2023-03-15T18:35:28.166Z,98631.91
2023-03-15T18:37:56.051Z,98631.00
2023-03-15T18:40:23.957Z,98636.88
2023-03-15T18:42:50.752Z,98634.16
2023-03-15T18:45:21.030Z,98640.88
2023-03-15T18:47:48.324Z,98636.41
2023-03-15T18:50:16.044Z,98640.66
2023-03-15T18:52:43.153Z,98642.25
2023-03-15T18:55:12.403Z,98640.53
2023-03-15T18:57:43.044Z,98642.16
2023-03-15T19:00:13.453Z,98645.38
2023-03-15T19:02:41.384Z,98634.31
2023-03-15T19:05:08.490Z,98640.91
2023-03-15T19:07:34.910Z,98633.25
2023-03-15T19:10:01.309Z,98634.84
2023-03-15T19:12:27.732Z,98638.97
2023-03-15T19:14:54.154Z,98639.00
2023-03-15T19:17:20.584Z,98643.94
2023-03-15T19:19:47.006Z,98629.59
2023-03-15T19:22:13.781Z,98633.78
2023-03-15T19:24:40.387Z,98636.28
2023-03-15T19:27:07.021Z,98637.97
2023-03-15T19:29:33.691Z,98632.84
2023-03-15T19:32:00.234Z,98640.44
2023-03-15T19:34:26.712Z,98647.16
2023-03-15T19:36:53.137Z,98643.66
2023-03-15T19:39:19.554Z,98650.63
2023-03-15T19:41:47.070Z,98653.13
2023-03-15T19:44:13.494Z,98657.19
2023-03-15T19:46:39.968Z,98658.78
2023-03-15T19:49:06.427Z,98665.59
2023-03-15T19:51:32.881Z,98656.28
2023-03-15T19:53:59.420Z,98666.41
2023-03-15T19:56:26.005Z,98672.31
2023-03-15T19:58:52.484Z,98669.69
2023-03-15T20:01:18.922Z,98673.06
2023-03-15T20:03:45.371Z,98675.53
2023-03-15T20:06:12.944Z,98680.56
2023-03-15T20:08:40.218Z,98686.53
2023-03-15T20:11:07.243Z,98687.41
2023-03-15T20:13:37.258Z,98684.81
2023-03-15T20:16:04.846Z,98692.41
2023-03-15T20:18:31.712Z,98695.81
2023-03-15T20:20:58.417Z,98700.94
2023-03-15T20:23:25.016Z,98697.50
2023-03-15T20:25:51.538Z,98703.38
2023-03-15T20:28:19.130Z,98710.03
2023-03-15T20:30:45.602Z,98714.22
2023-03-15T20:33:12.135Z,98720.97
2023-03-15T20:35:38.679Z,98716.69
2023-03-15T20:38:08.213Z,98721.66
2023-03-15T20:40:37.701Z,98723.31
2023-03-15T20:43:05.486Z,98732.41
2023-03-15T20:45:33.268Z,98728.09
2023-03-15T20:48:00.904Z,98739.66
2023-03-15T20:50:27.417Z,98748.13
2023-03-15T20:52:53.903Z,98752.16
2023-03-15T20:55:21.171Z,98752.81
2023-03-15T20:57:47.648Z,98752.81
2023-03-15T21:00:18.002Z,98754.41
2023-03-15T21:02:45.568Z,98745.91
2023-03-15T21:05:13.000Z,98750.16
2023-03-15T21:07:41.189Z,98753.75
2023-03-15T21:10:09.249Z,98750.41
2023-03-15T21:12:35.806Z,98753.84
2023-03-15T21:15:02.645Z,98754.56
2023-03-15T21:17:29.152Z,98764.59
2023-03-15T21:19:55.703Z,98762.06
2023-03-15T21:22:22.128Z,98758.72
2023-03-15T21:24:55.489Z,98761.38
2023-03-15T21:27:26.252Z,98757.84
2023-03-15T21:29:53.065Z,98761.22
2023-03-15T21:32:22.625Z,98759.69
2023-03-15T21:34:49.091Z,98761.41
2023-03-15T21:37:15.536Z,98762.97
2023-03-15T21:39:41.972Z,98766.47
2023-03-15T21:42:11.351Z,98764.03
2023-03-15T21:44:37.770Z,98772.59
2023-03-15T21:47:05.217Z,98771.75
2023-03-15T21:49:34.782Z,98768.41
2023-03-15T21:52:02.436Z,98770.91
2023-03-15T21:54:29.394Z,98773.25
2023-03-15T21:56:56.151Z,98775.88
2023-03-15T21:59:27.990Z,98782.75
2023-03-15T22:01:55.779Z,98782.78
2023-03-15T22:04:24.509Z,98779.25
2023-03-15T22:06:52.920Z,98780.00
2023-03-15T22:09:20.355Z,98778.97
2023-03-15T22:11:50.476Z,98778.13
2023-03-15T22:14:19.980Z,98780.56
2023-03-15T22:16:46.431Z,98782.03
2023-03-15T22:19:21.804Z,98771.69
2023-03-15T22:21:51.057Z,98772.41
2023-03-15T22:24:17.442Z,98778.25
2023-03-15T22:26:43.839Z,98768.03
2023-03-15T22:29:10.972Z,98776.53
2023-03-15T22:31:39.390Z,98765.63
2023-03-15T22:34:05.855Z,98773.06
2023-03-15T22:36:33.730Z,98771.31
2023-03-15T22:39:03.936Z,98769.50
2023-03-15T22:41:30.327Z,98772.72
2023-03-15T22:43:57.652Z,98775.94
2023-03-15T22:46:24.145Z,98775.97
2023-03-15T22:48:50.583Z,98774.31
2023-03-15T22:51:17.316Z,98777.06
2023-03-15T22:53:44.376Z,98788.16
2023-03-15T22:56:10.910Z,98781.28
2023-03-15T22:58:37.885Z,98786.41
2023-03-15T23:01:04.475Z,98785.53
2023-03-15T23:03:31.244Z,98773.59
2023-03-15T23:05:57.725Z,98785.47
2023-03-15T23:08:24.393Z,98787.28
2023-03-15T23:10:51.110Z,98789.94
2023-03-15T23:13:18.278Z,98789.09
2023-03-15T23:15:44.893Z,98793.03
2023-03-15T23:18:13.935Z,98794.53
2023-03-15T23:20:41.587Z,98792.66
2023-03-15T23:23:08.544Z,98790.84
2023-03-15T23:25:39.131Z,98788.16
2023-03-15T23:28:07.087Z,98788.09
2023-03-15T23:30:35.690Z,98791.44
2023-03-15T23:33:03.926Z,98794.59
2023-03-15T23:35:31.896Z,98794.41
2023-03-15T23:37:58.741Z,98798.59
2023-03-15T23:40:26.015Z,98796.28
2023-03-15T23:42:59.139Z,98794.50
2023-03-15T23:45:27.796Z,98798.50
2023-03-15T23:47:54.246Z,98797.19
2023-03-15T23:50:21.031Z,98797.00
2023-03-15T23:52:47.501Z,98801.97
2023-03-15T23:55:13.929Z,98802.09
2023-03-15T23:57:40.366Z,98804.47
